sensor_id;sensor_type;location;lat;lon;timestamp;pressure;altitude;pressure_sealevel;temperature
68027;BMP180;54819;48.030;14.710;2023-01-10T00:01:43;96871.40;;;6.50
68027;BMP180;54819;48.030;14.710;2023-01-10T00:04:10;96873.60;;;6.50
68027;BMP180;54819;48.030;14.710;2023-01-10T00:06:37;96881.20;;;6.50
68027;BMP180;54819;48.030;14.710;2023-01-10T00:09:03;96883.80;;;6.50
68027;BMP180;54819;48.030;14.710;2023-01-10T00:11:30;96881.20;;;6.50
68027;BMP180;54819;48.030;14.710;2023-01-10T00:14:15;96883.40;;;6.50
68027;BMP180;54819;48.030;14.710;2023-01-10T00:16:42;96887.60;;;6.48
68027;BMP180;54819;48.030;14.710;2023-01-10T00:19:09;96887.20;;;6.50
68027;BMP180;54819;48.030;14.710;2023-01-10T00:21:36;96887.60;;;6.50
68027;BMP180;54819;48.030;14.710;2023-01-10T00:24:05;96889.80;;;6.50
68027;BMP180;54819;48.030;14.710;2023-01-10T00:26:49;96896.20;;;6.50
68027;BMP180;54819;48.030;14.710;2023-01-10T00:29:22;96896.00;;;6.50
68027;BMP180;54819;48.030;14.710;2023-01-10T00:31:50;96898.60;;;6.60
68027;BMP180;54819;48.030;14.710;2023-01-10T00:34:17;96898.60;;;6.70
68027;BMP180;54819;48.030;14.710;2023-01-10T00:36:44;96900.00;;;6.80
68027;BMP180;54819;48.030;14.710;2023-01-10T00:39:14;96900.20;;;6.90
68027;BMP180;54819;48.030;14.710;2023-01-10T00:41:41;96900.00;;;7.00
68027;BMP180;54819;48.030;14.710;2023-01-10T00:44:26;96899.60;;;7.10
68027;BMP180;54819;48.030;14.710;2023-01-10T00:46:53;96905.80;;;7.10
68027;BMP180;54819;48.030;14.710;2023-01-10T00:49:20;96905.60;;;7.18
68027;BMP180;54819;48.030;14.710;2023-01-10T00:51:47;96908.60;;;7.20
68027;BMP180;54819;48.030;14.710;2023-01-10T00:54:14;96918.00;;;7.20
68027;BMP180;54819;48.030;14.710;2023-01-10T00:56:41;96920.60;;;7.20
68027;BMP180;54819;48.030;14.710;2023-01-10T00:59:07;96925.20;;;7.20
68027;BMP180;54819;48.030;14.710;2023-01-10T01:01:34;96931.00;;;7.28
68027;BMP180;54819;48.030;14.710;2023-01-10T01:04:01;96932.40;;;7.30
68027;BMP180;54819;48.030;14.710;2023-01-10T01:06:28;96937.20;;;7.30
68027;BMP180;54819;48.030;14.710;2023-01-10T01:08:55;96940.80;;;7.30
68027;BMP180;54819;48.030;14.710;2023-01-10T01:11:21;96941.80;;;7.30
68027;BMP180;54819;48.030;14.710;2023-01-10T01:13:48;96946.60;;;7.30
68027;BMP180;54819;48.030;14.710;2023-01-10T01:16:16;96950.20;;;7.30
68027;BMP180;54819;48.030;14.710;2023-01-10T01:18:42;96956.20;;;7.30
68027;BMP180;54819;48.030;14.710;2023-01-10T01:21:09;96963.40;;;7.30
68027;BMP180;54819;48.030;14.710;2023-01-10T01:23:36;96963.40;;;7.34
68027;BMP180;54819;48.030;14.710;2023-01-10T01:26:03;96969.20;;;7.40
68027;BMP180;54819;48.030;14.710;2023-01-10T01:28:31;96979.40;;;7.40
68027;BMP180;54819;48.030;14.710;2023-01-10T01:30:58;96979.40;;;7.40
68027;BMP180;54819;48.030;14.710;2023-01-10T01:33:25;96987.60;;;7.32
68027;BMP180;54819;48.030;14.710;2023-01-10T01:35:51;96993.40;;;7.30
68027;BMP180;54819;48.030;14.710;2023-01-10T01:38:18;96997.40;;;7.30
68027;BMP180;54819;48.030;14.710;2023-01-10T01:40:45;97000.60;;;7.30
68027;BMP180;54819;48.030;14.710;2023-01-10T01:43:26;97010.20;;;7.30
68027;BMP180;54819;48.030;14.710;2023-01-10T01:45:54;97006.40;;;7.30
68027;BMP180;54819;48.030;14.710;2023-01-10T01:48:44;97003.80;;;7.38
68027;BMP180;54819;48.030;14.710;2023-01-10T01:51:18;97000.80;;;7.40
68027;BMP180;54819;48.030;14.710;2023-01-10T01:53:49;96999.40;;;7.38
68027;BMP180;54819;48.030;14.710;2023-01-10T01:56:21;97000.40;;;7.40
68027;BMP180;54819;48.030;14.710;2023-01-10T02:01:18;97000.20;;;7.42
68027;BMP180;54819;48.030;14.710;2023-01-10T02:03:48;97007.60;;;7.40
68027;BMP180;54819;48.030;14.710;2023-01-10T02:06:18;97003.60;;;7.40
68027;BMP180;54819;48.030;14.710;2023-01-10T02:08:51;97007.40;;;7.42
68027;BMP180;54819;48.030;14.710;2023-01-10T02:11:20;97004.60;;;7.40
68027;BMP180;54819;48.030;14.710;2023-01-10T02:13:48;97006.60;;;7.28
68027;BMP180;54819;48.030;14.710;2023-01-10T02:16:16;97007.20;;;7.10
68027;BMP180;54819;48.030;14.710;2023-01-10T02:18:43;97014.60;;;7.00
68027;BMP180;54819;48.030;14.710;2023-01-10T02:27:00;97036.80;;;6.70
68027;BMP180;54819;48.030;14.710;2023-01-10T02:32:56;97038.60;;;6.70
68027;BMP180;54819;48.030;14.710;2023-01-10T02:38:21;97040.80;;;6.80
68027;BMP180;54819;48.030;14.710;2023-01-10T02:44:06;97045.80;;;7.00
68027;BMP180;54819;48.030;14.710;2023-01-10T02:46:35;97052.00;;;7.10
68027;BMP180;54819;48.030;14.710;2023-01-10T02:49:03;97050.20;;;7.20
68027;BMP180;54819;48.030;14.710;2023-01-10T02:51:30;97050.20;;;7.20
68027;BMP180;54819;48.030;14.710;2023-01-10T02:54:02;97046.80;;;7.26
68027;BMP180;54819;48.030;14.710;2023-01-10T02:59:33;97047.40;;;7.30
68027;BMP180;54819;48.030;14.710;2023-01-10T03:07:29;97068.00;;;7.30
68027;BMP180;54819;48.030;14.710;2023-01-10T03:12:40;97062.40;;;7.30
68027;BMP180;54819;48.030;14.710;2023-01-10T03:15:11;97062.60;;;7.40
68027;BMP180;54819;48.030;14.710;2023-01-10T03:17:41;97066.80;;;7.40
68027;BMP180;54819;48.030;14.710;2023-01-10T03:20:10;97068.80;;;7.40
68027;BMP180;54819;48.030;14.710;2023-01-10T03:22:38;97070.20;;;7.40
68027;BMP180;54819;48.030;14.710;2023-01-10T03:25:07;97068.80;;;7.40
68027;BMP180;54819;48.030;14.710;2023-01-10T03:30:30;97079.60;;;7.50
68027;BMP180;54819;48.030;14.710;2023-01-10T03:33:02;97080.20;;;7.50
68027;BMP180;54819;48.030;14.710;2023-01-10T03:35:55;97079.60;;;7.50
68027;BMP180;54819;48.030;14.710;2023-01-10T03:38:34;97085.40;;;7.50
68027;BMP180;54819;48.030;14.710;2023-01-10T03:41:11;97086.80;;;7.58
68027;BMP180;54819;48.030;14.710;2023-01-10T03:43:45;97073.20;;;7.60
68027;BMP180;54819;48.030;14.710;2023-01-10T03:46:38;97084.00;;;7.54
68027;BMP180;54819;48.030;14.710;2023-01-10T03:49:08;97092.60;;;7.50
68027;BMP180;54819;48.030;14.710;2023-01-10T03:51:37;97100.00;;;7.50
68027;BMP180;54819;48.030;14.710;2023-01-10T03:54:04;97112.80;;;7.50
68027;BMP180;54819;48.030;14.710;2023-01-10T03:56:42;97111.20;;;7.50
68027;BMP180;54819;48.030;14.710;2023-01-10T03:59:09;97120.40;;;7.54
68027;BMP180;54819;48.030;14.710;2023-01-10T04:01:36;97136.60;;;7.50
68027;BMP180;54819;48.030;14.710;2023-01-10T04:04:03;97150.00;;;7.50
68027;BMP180;54819;48.030;14.710;2023-01-10T04:06:30;97162.20;;;7.50
68027;BMP180;54819;48.030;14.710;2023-01-10T04:08:56;97160.20;;;7.40
68027;BMP180;54819;48.030;14.710;2023-01-10T04:11:23;97172.60;;;7.40
68027;BMP180;54819;48.030;14.710;2023-01-10T04:13:50;97177.60;;;7.40
68027;BMP180;54819;48.030;14.710;2023-01-10T04:16:17;97171.60;;;7.40
68027;BMP180;54819;48.030;14.710;2023-01-10T04:18:43;97181.20;;;7.40
68027;BMP180;54819;48.030;14.710;2023-01-10T04:21:10;97176.20;;;7.36
68027;BMP180;54819;48.030;14.710;2023-01-10T04:23:37;97191.40;;;7.40
68027;BMP180;54819;48.030;14.710;2023-01-10T04:26:03;97188.20;;;7.34
68027;BMP180;54819;48.030;14.710;2023-01-10T04:28:30;97193.20;;;7.36
68027;BMP180;54819;48.030;14.710;2023-01-10T04:30:57;97191.40;;;7.30
68027;BMP180;54819;48.030;14.710;2023-01-10T04:33:24;97201.00;;;7.30
68027;BMP180;54819;48.030;14.710;2023-01-10T04:35:51;97204.00;;;7.30
68027;BMP180;54819;48.030;14.710;2023-01-10T04:38:18;97210.00;;;7.30
68027;BMP180;54819;48.030;14.710;2023-01-10T04:40:51;97211.40;;;7.30
68027;BMP180;54819;48.030;14.710;2023-01-10T04:43:18;97220.80;;;7.30
68027;BMP180;54819;48.030;14.710;2023-01-10T04:45:45;97221.00;;;7.30
68027;BMP180;54819;48.030;14.710;2023-01-10T04:48:12;97226.20;;;7.20
68027;BMP180;54819;48.030;14.710;2023-01-10T04:50:38;97223.60;;;7.20
68027;BMP180;54819;48.030;14.710;2023-01-10T04:53:05;97233.00;;;7.20
68027;BMP180;54819;48.030;14.710;2023-01-10T04:55:32;97240.00;;;7.20
68027;BMP180;54819;48.030;14.710;2023-01-10T04:58:01;97244.20;;;7.20
68027;BMP180;54819;48.030;14.710;2023-01-10T05:00:28;97242.20;;;7.22
68027;BMP180;54819;48.030;14.710;2023-01-10T05:02:55;97256.60;;;7.22
68027;BMP180;54819;48.030;14.710;2023-01-10T05:05:22;97254.20;;;7.20
68027;BMP180;54819;48.030;14.710;2023-01-10T05:07:49;97259.60;;;7.20
68027;BMP180;54819;48.030;14.710;2023-01-10T05:10:16;97267.80;;;7.24
68027;BMP180;54819;48.030;14.710;2023-01-10T05:12:44;97264.20;;;7.22
68027;BMP180;54819;48.030;14.710;2023-01-10T05:15:12;97272.60;;;7.30
68027;BMP180;54819;48.030;14.710;2023-01-10T05:17:39;97280.00;;;7.26
68027;BMP180;54819;48.030;14.710;2023-01-10T05:20:07;97284.00;;;7.10
68027;BMP180;54819;48.030;14.710;2023-01-10T05:22:34;97291.00;;;6.92
68027;BMP180;54819;48.030;14.710;2023-01-10T05:25:00;97285.40;;;6.88
68027;BMP180;54819;48.030;14.710;2023-01-10T05:27:27;97292.40;;;6.80
68027;BMP180;54819;48.030;14.710;2023-01-10T05:29:54;97304.20;;;6.70
68027;BMP180;54819;48.030;14.710;2023-01-10T05:32:21;97303.80;;;6.60
68027;BMP180;54819;48.030;14.710;2023-01-10T05:34:48;97304.60;;;6.58
68027;BMP180;54819;48.030;14.710;2023-01-10T05:37:15;97309.80;;;6.52
68027;BMP180;54819;48.030;14.710;2023-01-10T05:39:41;97308.40;;;6.50
68027;BMP180;54819;48.030;14.710;2023-01-10T05:42:09;97320.60;;;6.40
68027;BMP180;54819;48.030;14.710;2023-01-10T05:44:35;97317.60;;;6.40
68027;BMP180;54819;48.030;14.710;2023-01-10T05:47:02;97323.60;;;6.40
68027;BMP180;54819;48.030;14.710;2023-01-10T05:49:29;97327.80;;;6.40
68027;BMP180;54819;48.030;14.710;2023-01-10T05:51:55;97332.80;;;6.40
68027;BMP180;54819;48.030;14.710;2023-01-10T05:54:22;97334.80;;;6.40
68027;BMP180;54819;48.030;14.710;2023-01-10T05:56:49;97344.00;;;6.40
68027;BMP180;54819;48.030;14.710;2023-01-10T05:59:16;97349.60;;;6.40
68027;BMP180;54819;48.030;14.710;2023-01-10T06:01:53;97356.20;;;6.40
68027;BMP180;54819;48.030;14.710;2023-01-10T06:04:20;97366.80;;;6.40
68027;BMP180;54819;48.030;14.710;2023-01-10T06:06:47;97370.00;;;6.38
68027;BMP180;54819;48.030;14.710;2023-01-10T06:09:14;97375.20;;;6.34
68027;BMP180;54819;48.030;14.710;2023-01-10T06:11:40;97376.40;;;6.30
68027;BMP180;54819;48.030;14.710;2023-01-10T06:14:07;97381.60;;;6.30
68027;BMP180;54819;48.030;14.710;2023-01-10T06:16:34;97392.60;;;6.30
68027;BMP180;54819;48.030;14.710;2023-01-10T06:19:01;97398.60;;;6.30
68027;BMP180;54819;48.030;14.710;2023-01-10T06:21:28;97402.20;;;6.30
68027;BMP180;54819;48.030;14.710;2023-01-10T06:23:55;97407.60;;;6.30
68027;BMP180;54819;48.030;14.710;2023-01-10T06:26:22;97414.20;;;6.30
68027;BMP180;54819;48.030;14.710;2023-01-10T06:28:48;97415.60;;;6.30
68027;BMP180;54819;48.030;14.710;2023-01-10T06:31:15;97423.20;;;6.30
68027;BMP180;54819;48.030;14.710;2023-01-10T06:33:42;97429.40;;;6.30
68027;BMP180;54819;48.030;14.710;2023-01-10T06:36:09;97432.60;;;6.30
68027;BMP180;54819;48.030;14.710;2023-01-10T06:38:37;97439.00;;;6.30
68027;BMP180;54819;48.030;14.710;2023-01-10T06:41:03;97446.40;;;6.30
68027;BMP180;54819;48.030;14.710;2023-01-10T06:43:43;97450.80;;;6.20
68027;BMP180;54819;48.030;14.710;2023-01-10T06:46:14;97457.40;;;6.20
68027;BMP180;54819;48.030;14.710;2023-01-10T06:48:43;97464.00;;;6.26
68027;BMP180;54819;48.030;14.710;2023-01-10T06:51:12;97465.80;;;6.20
68027;BMP180;54819;48.030;14.710;2023-01-10T06:53:39;97475.40;;;6.22
68027;BMP180;54819;48.030;14.710;2023-01-10T06:56:07;97480.40;;;6.22
68027;BMP180;54819;48.030;14.710;2023-01-10T06:58:36;97483.40;;;6.30
68027;BMP180;54819;48.030;14.710;2023-01-10T07:01:12;97483.20;;;6.28
68027;BMP180;54819;48.030;14.710;2023-01-10T07:03:39;97480.60;;;6.30
68027;BMP180;54819;48.030;14.710;2023-01-10T07:06:07;97493.20;;;6.22
68027;BMP180;54819;48.030;14.710;2023-01-10T07:08:39;97497.80;;;6.30
68027;BMP180;54819;48.030;14.710;2023-01-10T07:11:06;97493.20;;;6.30
68027;BMP180;54819;48.030;14.710;2023-01-10T07:13:34;97518.20;;;6.30
68027;BMP180;54819;48.030;14.710;2023-01-10T07:16:03;97519.00;;;6.30
68027;BMP180;54819;48.030;14.710;2023-01-10T07:18:33;97528.80;;;6.30
68027;BMP180;54819;48.030;14.710;2023-01-10T07:21:00;97533.80;;;6.30
68027;BMP180;54819;48.030;14.710;2023-01-10T07:23:27;97539.00;;;6.30
68027;BMP180;54819;48.030;14.710;2023-01-10T07:25:57;97540.80;;;6.30
68027;BMP180;54819;48.030;14.710;2023-01-10T07:28:24;97542.40;;;6.30
68027;BMP180;54819;48.030;14.710;2023-01-10T07:30:51;97550.20;;;6.32
68027;BMP180;54819;48.030;14.710;2023-01-10T07:33:18;97551.20;;;6.30
68027;BMP180;54819;48.030;14.710;2023-01-10T07:35:45;97555.60;;;6.38
68027;BMP180;54819;48.030;14.710;2023-01-10T07:38:11;97558.80;;;6.40
68027;BMP180;54819;48.030;14.710;2023-01-10T07:40:38;97568.20;;;6.40
68027;BMP180;54819;48.030;14.710;2023-01-10T07:43:05;97575.20;;;6.40
68027;BMP180;54819;48.030;14.710;2023-01-10T07:45:32;97582.80;;;6.40
68027;BMP180;54819;48.030;14.710;2023-01-10T07:48:01;97579.60;;;6.40
68027;BMP180;54819;48.030;14.710;2023-01-10T07:50:33;97584.00;;;6.40
68027;BMP180;54819;48.030;14.710;2023-01-10T07:53:03;97590.80;;;6.38
68027;BMP180;54819;48.030;14.710;2023-01-10T07:55:30;97595.00;;;6.40
68027;BMP180;54819;48.030;14.710;2023-01-10T07:58:00;97596.60;;;6.40
68027;BMP180;54819;48.030;14.710;2023-01-10T08:00:27;97607.60;;;6.40
68027;BMP180;54819;48.030;14.710;2023-01-10T08:02:54;97608.20;;;6.40
68027;BMP180;54819;48.030;14.710;2023-01-10T08:05:22;97611.40;;;6.40
68027;BMP180;54819;48.030;14.710;2023-01-10T08:07:49;97614.80;;;6.40
68027;BMP180;54819;48.030;14.710;2023-01-10T08:10:16;97617.40;;;6.46
68027;BMP180;54819;48.030;14.710;2023-01-10T08:12:43;97620.40;;;6.50
68027;BMP180;54819;48.030;14.710;2023-01-10T08:15:10;97619.20;;;6.50
68027;BMP180;54819;48.030;14.710;2023-01-10T08:17:37;97625.20;;;6.50
68027;BMP180;54819;48.030;14.710;2023-01-10T08:20:03;97631.20;;;6.50
68027;BMP180;54819;48.030;14.710;2023-01-10T08:22:30;97633.80;;;6.50
68027;BMP180;54819;48.030;14.710;2023-01-10T08:24:57;97634.00;;;6.60
68027;BMP180;54819;48.030;14.710;2023-01-10T08:27:24;97636.80;;;6.60
68027;BMP180;54819;48.030;14.710;2023-01-10T08:29:51;97622.00;;;6.60
68027;BMP180;54819;48.030;14.710;2023-01-10T08:32:18;97643.80;;;6.60
68027;BMP180;54819;48.030;14.710;2023-01-10T08:34:45;97644.20;;;6.60
68027;BMP180;54819;48.030;14.710;2023-01-10T08:37:12;97652.60;;;6.54
68027;BMP180;54819;48.030;14.710;2023-01-10T08:39:39;97654.60;;;6.60
68027;BMP180;54819;48.030;14.710;2023-01-10T08:42:06;97657.00;;;6.60
68027;BMP180;54819;48.030;14.710;2023-01-10T08:44:33;97666.80;;;6.60
68027;BMP180;54819;48.030;14.710;2023-01-10T08:47:00;97673.20;;;6.58
68027;BMP180;54819;48.030;14.710;2023-01-10T08:49:27;97678.80;;;6.52
68027;BMP180;54819;48.030;14.710;2023-01-10T08:51:54;97678.00;;;6.54
68027;BMP180;54819;48.030;14.710;2023-01-10T08:54:20;97682.80;;;6.60
68027;BMP180;54819;48.030;14.710;2023-01-10T08:56:47;97683.00;;;6.60
68027;BMP180;54819;48.030;14.710;2023-01-10T08:59:14;97689.20;;;6.60
68027;BMP180;54819;48.030;14.710;2023-01-10T09:01:42;97693.80;;;6.60
68027;BMP180;54819;48.030;14.710;2023-01-10T09:04:09;97707.20;;;6.60
68027;BMP180;54819;48.030;14.710;2023-01-10T09:06:36;97702.60;;;6.60
68027;BMP180;54819;48.030;14.710;2023-01-10T09:09:03;97708.20;;;6.60
68027;BMP180;54819;48.030;14.710;2023-01-10T09:11:30;97710.60;;;6.60
68027;BMP180;54819;48.030;14.710;2023-01-10T09:13:57;97715.80;;;6.60
68027;BMP180;54819;48.030;14.710;2023-01-10T09:16:24;97711.80;;;6.60
68027;BMP180;54819;48.030;14.710;2023-01-10T09:18:51;97713.80;;;6.60
68027;BMP180;54819;48.030;14.710;2023-01-10T09:21:18;97720.20;;;6.70
68027;BMP180;54819;48.030;14.710;2023-01-10T09:23:45;97719.60;;;6.70
68027;BMP180;54819;48.030;14.710;2023-01-10T09:26:12;97721.80;;;6.70
68027;BMP180;54819;48.030;14.710;2023-01-10T09:28:39;97726.20;;;6.72
68027;BMP180;54819;48.030;14.710;2023-01-10T09:31:06;97726.80;;;6.80
68027;BMP180;54819;48.030;14.710;2023-01-10T09:33:34;97735.80;;;6.80
68027;BMP180;54819;48.030;14.710;2023-01-10T09:36:12;97738.20;;;6.90
68027;BMP180;54819;48.030;14.710;2023-01-10T09:38:42;97743.40;;;6.92
68027;BMP180;54819;48.030;14.710;2023-01-10T09:46:33;97752.20;;;7.00
68027;BMP180;54819;48.030;14.710;2023-01-10T09:49:17;97755.60;;;6.92
68027;BMP180;54819;48.030;14.710;2023-01-10T09:51:48;97754.00;;;7.00
68027;BMP180;54819;48.030;14.710;2023-01-10T09:54:26;97749.00;;;7.00
68027;BMP180;54819;48.030;14.710;2023-01-10T09:56:54;97762.60;;;7.00
68027;BMP180;54819;48.030;14.710;2023-01-10T09:59:36;97760.80;;;7.10
68027;BMP180;54819;48.030;14.710;2023-01-10T10:02:27;97760.40;;;7.10
68027;BMP180;54819;48.030;14.710;2023-01-10T10:07:45;97767.00;;;7.22
68027;BMP180;54819;48.030;14.710;2023-01-10T10:10:32;97771.60;;;7.30
68027;BMP180;54819;48.030;14.710;2023-01-10T10:13:20;97769.60;;;7.30
68027;BMP180;54819;48.030;14.710;2023-01-10T10:19:12;97772.80;;;7.60
68027;BMP180;54819;48.030;14.710;2023-01-10T10:36:20;97765.20;;;7.96
68027;BMP180;54819;48.030;14.710;2023-01-10T10:38:50;97774.60;;;7.90
68027;BMP180;54819;48.030;14.710;2023-01-10T10:41:25;97783.40;;;7.90
68027;BMP180;54819;48.030;14.710;2023-01-10T10:43:55;97775.60;;;7.90
68027;BMP180;54819;48.030;14.710;2023-01-10T10:46:26;97767.20;;;7.90
68027;BMP180;54819;48.030;14.710;2023-01-10T10:48:56;97784.60;;;7.80
68027;BMP180;54819;48.030;14.710;2023-01-10T10:51:40;97785.00;;;7.80
68027;BMP180;54819;48.030;14.710;2023-01-10T10:54:12;97787.00;;;7.80
68027;BMP180;54819;48.030;14.710;2023-01-10T10:56:40;97784.40;;;7.80
68027;BMP180;54819;48.030;14.710;2023-01-10T10:59:07;97783.40;;;7.80
68027;BMP180;54819;48.030;14.710;2023-01-10T11:01:34;97787.20;;;7.80
68027;BMP180;54819;48.030;14.710;2023-01-10T11:04:07;97792.00;;;7.80
68027;BMP180;54819;48.030;14.710;2023-01-10T11:06:36;97796.80;;;7.90
68027;BMP180;54819;48.030;14.710;2023-01-10T11:09:05;97798.80;;;7.90
68027;BMP180;54819;48.030;14.710;2023-01-10T11:11:37;97796.60;;;7.90
68027;BMP180;54819;48.030;14.710;2023-01-10T11:14:07;97806.40;;;7.90
68027;BMP180;54819;48.030;14.710;2023-01-10T11:16:40;97807.20;;;7.90
68027;BMP180;54819;48.030;14.710;2023-01-10T11:19:14;97809.00;;;7.90
68027;BMP180;54819;48.030;14.710;2023-01-10T11:21:56;97819.20;;;7.90
68027;BMP180;54819;48.030;14.710;2023-01-10T11:24:30;97817.00;;;7.92
68027;BMP180;54819;48.030;14.710;2023-01-10T11:27:01;97811.60;;;7.98
68027;BMP180;54819;48.030;14.710;2023-01-10T11:29:37;97800.40;;;8.00
68027;BMP180;54819;48.030;14.710;2023-01-10T11:32:12;97816.00;;;8.00
68027;BMP180;54819;48.030;14.710;2023-01-10T11:34:48;97822.80;;;8.00
68027;BMP180;54819;48.030;14.710;2023-01-10T11:39:43;97814.80;;;7.90
68027;BMP180;54819;48.030;14.710;2023-01-10T11:42:27;97820.60;;;7.84
68027;BMP180;54819;48.030;14.710;2023-01-10T11:45:32;97823.20;;;7.80
68027;BMP180;54819;48.030;14.710;2023-01-10T11:48:16;97828.80;;;7.80
68027;BMP180;54819;48.030;14.710;2023-01-10T11:50:48;97829.20;;;7.90
68027;BMP180;54819;48.030;14.710;2023-01-10T11:53:37;97818.00;;;8.00
68027;BMP180;54819;48.030;14.710;2023-01-10T11:56:05;97822.20;;;8.10
68027;BMP180;54819;48.030;14.710;2023-01-10T11:58:35;97823.20;;;8.10
68027;BMP180;54819;48.030;14.710;2023-01-10T12:01:04;97824.40;;;8.20
68027;BMP180;54819;48.030;14.710;2023-01-10T12:03:33;97820.20;;;8.30
68027;BMP180;54819;48.030;14.710;2023-01-10T12:06:16;97815.40;;;8.32
68027;BMP180;54819;48.030;14.710;2023-01-10T12:08:43;97824.40;;;8.40
68027;BMP180;54819;48.030;14.710;2023-01-10T12:13:48;97820.00;;;8.40
68027;BMP180;54819;48.030;14.710;2023-01-10T12:16:27;97825.80;;;8.40
68027;BMP180;54819;48.030;14.710;2023-01-10T12:18:59;97823.00;;;8.40
68027;BMP180;54819;48.030;14.710;2023-01-10T12:21:43;97825.40;;;8.30
68027;BMP180;54819;48.030;14.710;2023-01-10T12:24:17;97828.60;;;8.30
68027;BMP180;54819;48.030;14.710;2023-01-10T12:26:48;97829.00;;;8.30
68027;BMP180;54819;48.030;14.710;2023-01-10T12:29:23;97821.80;;;8.30
68027;BMP180;54819;48.030;14.710;2023-01-10T12:31:52;97825.60;;;8.30
68027;BMP180;54819;48.030;14.710;2023-01-10T12:34:37;97833.80;;;8.30
68027;BMP180;54819;48.030;14.710;2023-01-10T12:43:47;97831.20;;;8.10
68027;BMP180;54819;48.030;14.710;2023-01-10T12:46:17;97835.00;;;8.00
68027;BMP180;54819;48.030;14.710;2023-01-10T12:49:25;97855.40;;;8.00
68027;BMP180;54819;48.030;14.710;2023-01-10T12:51:57;97854.60;;;8.00
68027;BMP180;54819;48.030;14.710;2023-01-10T12:54:28;97856.60;;;8.00
68027;BMP180;54819;48.030;14.710;2023-01-10T12:57:04;97857.40;;;8.00
68027;BMP180;54819;48.030;14.710;2023-01-10T12:59:39;97865.40;;;8.00
68027;BMP180;54819;48.030;14.710;2023-01-10T13:02:18;97859.80;;;8.00
68027;BMP180;54819;48.030;14.710;2023-01-10T13:04:52;97862.60;;;8.00
68027;BMP180;54819;48.030;14.710;2023-01-10T13:07:21;97871.80;;;7.98
68027;BMP180;54819;48.030;14.710;2023-01-10T13:09:50;97877.80;;;8.00
68027;BMP180;54819;48.030;14.710;2023-01-10T13:12:21;97881.40;;;8.00
68027;BMP180;54819;48.030;14.710;2023-01-10T13:17:44;97885.20;;;8.00
68027;BMP180;54819;48.030;14.710;2023-01-10T13:22:49;97884.80;;;8.00
68027;BMP180;54819;48.030;14.710;2023-01-10T13:25:38;97892.60;;;7.94
68027;BMP180;54819;48.030;14.710;2023-01-10T13:30:41;97915.80;;;7.90
68027;BMP180;54819;48.030;14.710;2023-01-10T13:33:24;97915.20;;;7.84
68027;BMP180;54819;48.030;14.710;2023-01-10T13:35:53;97927.40;;;7.80
68027;BMP180;54819;48.030;14.710;2023-01-10T13:38:28;97932.40;;;7.76
68027;BMP180;54819;48.030;14.710;2023-01-10T13:41:05;97943.00;;;7.66
68027;BMP180;54819;48.030;14.710;2023-01-10T13:51:19;97955.00;;;7.70
68027;BMP180;54819;48.030;14.710;2023-01-10T13:59:04;97967.60;;;7.70
68027;BMP180;54819;48.030;14.710;2023-01-10T14:01:57;97979.00;;;7.70
68027;BMP180;54819;48.030;14.710;2023-01-10T14:05:15;97979.60;;;7.60
68027;BMP180;54819;48.030;14.710;2023-01-10T14:07:46;97987.80;;;7.60
68027;BMP180;54819;48.030;14.710;2023-01-10T14:10:21;97982.40;;;7.60
68027;BMP180;54819;48.030;14.710;2023-01-10T14:12:56;97985.40;;;7.50
68027;BMP180;54819;48.030;14.710;2023-01-10T14:18:01;97986.60;;;7.48
68027;BMP180;54819;48.030;14.710;2023-01-10T14:20:31;97991.00;;;7.42
68027;BMP180;54819;48.030;14.710;2023-01-10T14:25:33;98002.80;;;7.40
68027;BMP180;54819;48.030;14.710;2023-01-10T14:28:01;97999.80;;;7.30
68027;BMP180;54819;48.030;14.710;2023-01-10T14:30:33;97995.20;;;7.30
68027;BMP180;54819;48.030;14.710;2023-01-10T14:33:26;98001.60;;;7.20
68027;BMP180;54819;48.030;14.710;2023-01-10T14:36:02;97999.00;;;7.14
68027;BMP180;54819;48.030;14.710;2023-01-10T14:38:37;98005.00;;;7.10
68027;BMP180;54819;48.030;14.710;2023-01-10T14:41:09;98009.80;;;7.06
68027;BMP180;54819;48.030;14.710;2023-01-10T14:44:09;98010.60;;;7.00
68027;BMP180;54819;48.030;14.710;2023-01-10T14:46:46;98023.40;;;7.00
68027;BMP180;54819;48.030;14.710;2023-01-10T14:49:28;98022.20;;;7.00
68027;BMP180;54819;48.030;14.710;2023-01-10T14:54:37;98027.00;;;7.00
68027;BMP180;54819;48.030;14.710;2023-01-10T14:57:03;98031.80;;;7.00
68027;BMP180;54819;48.030;14.710;2023-01-10T14:59:41;98040.20;;;7.00
68027;BMP180;54819;48.030;14.710;2023-01-10T15:02:20;98041.00;;;6.90
68027;BMP180;54819;48.030;14.710;2023-01-10T15:04:52;98048.20;;;6.90
68027;BMP180;54819;48.030;14.710;2023-01-10T15:07:21;98051.20;;;6.90
68027;BMP180;54819;48.030;14.710;2023-01-10T15:09:50;98056.80;;;6.90
68027;BMP180;54819;48.030;14.710;2023-01-10T15:12:20;98066.00;;;6.90
68027;BMP180;54819;48.030;14.710;2023-01-10T15:14:48;98062.20;;;6.90
68027;BMP180;54819;48.030;14.710;2023-01-10T15:17:17;98070.00;;;6.82
68027;BMP180;54819;48.030;14.710;2023-01-10T15:19:50;98065.60;;;6.80
68027;BMP180;54819;48.030;14.710;2023-01-10T15:22:24;98068.40;;;6.80
68027;BMP180;54819;48.030;14.710;2023-01-10T15:25:23;98074.20;;;6.80
68027;BMP180;54819;48.030;14.710;2023-01-10T15:27:53;98072.80;;;6.80
68027;BMP180;54819;48.030;14.710;2023-01-10T15:30:22;98077.00;;;6.80
68027;BMP180;54819;48.030;14.710;2023-01-10T15:32:52;98090.40;;;6.80
68027;BMP180;54819;48.030;14.710;2023-01-10T15:35:24;98090.40;;;6.78
68027;BMP180;54819;48.030;14.710;2023-01-10T15:38:04;98085.40;;;6.78
68027;BMP180;54819;48.030;14.710;2023-01-10T15:40:34;98085.60;;;6.70
68027;BMP180;54819;48.030;14.710;2023-01-10T15:43:29;98091.60;;;6.70
68027;BMP180;54819;48.030;14.710;2023-01-10T15:45:58;98091.60;;;6.70
68027;BMP180;54819;48.030;14.710;2023-01-10T15:51:26;98106.00;;;6.70
68027;BMP180;54819;48.030;14.710;2023-01-10T15:53:57;98103.80;;;6.66
68027;BMP180;54819;48.030;14.710;2023-01-10T15:56:38;98087.80;;;6.70
68027;BMP180;54819;48.030;14.710;2023-01-10T15:59:29;98106.00;;;6.70
68027;BMP180;54819;48.030;14.710;2023-01-10T16:04:39;98107.00;;;6.70
68027;BMP180;54819;48.030;14.710;2023-01-10T16:07:20;98104.60;;;6.80
68027;BMP180;54819;48.030;14.710;2023-01-10T16:09:59;98110.60;;;6.70
68027;BMP180;54819;48.030;14.710;2023-01-10T16:12:36;98105.60;;;6.70
68027;BMP180;54819;48.030;14.710;2023-01-10T16:15:24;98098.40;;;6.70